createdAt,value
2023-02-14T00:00:28.532Z,60.02
2023-02-14T00:01:30.071Z,59.73
2023-02-14T00:02:31.578Z,60.39
2023-02-14T00:03:33.176Z,60.82
2023-02-14T00:04:38.267Z,60.75
2023-02-14T00:05:40.165Z,60.67
2023-02-14T00:06:41.684Z,60.42
2023-02-14T00:07:43.428Z,60.64
2023-02-14T00:08:45.594Z,62.27
2023-02-14T00:09:47.082Z,62.18
2023-02-14T00:10:48.634Z,61.37
2023-02-14T00:11:50.215Z,60.94
2023-02-14T00:12:51.725Z,60.38
2023-02-14T00:14:11.733Z,60.73
2023-02-14T00:15:25.543Z,61.35
2023-02-14T00:16:27.273Z,60.83
2023-02-14T00:17:28.827Z,61.25
2023-02-14T00:18:48.651Z,61.29
2023-02-14T00:19:50.475Z,60.67
2023-02-14T00:20:52.070Z,60.41
2023-02-14T00:21:53.667Z,60.73
2023-02-14T00:22:55.198Z,61.07
2023-02-14T00:23:56.689Z,61.35
2023-02-14T00:24:58.499Z,60.79
2023-02-14T00:25:59.990Z,60.68
2023-02-14T00:27:01.720Z,60.02
2023-02-14T00:28:03.233Z,59.86
2023-02-14T00:29:08.436Z,60.22
2023-02-14T00:30:10.607Z,59.90
2023-02-14T00:31:12.255Z,59.38
2023-02-14T00:32:14.101Z,60.23
2023-02-14T00:33:15.656Z,59.92
2023-02-14T00:34:17.288Z,60.45
2023-02-14T00:35:18.950Z,62.50
2023-02-14T00:36:20.746Z,63.90
2023-02-14T00:37:22.836Z,62.68
2023-02-14T00:38:24.333Z,65.58
2023-02-14T00:39:25.865Z,66.45
2023-02-14T00:40:28.919Z,65.04
2023-02-14T00:41:30.364Z,63.97
2023-02-14T00:42:32.088Z,63.69
2023-02-14T00:43:33.583Z,62.49
2023-02-14T00:44:35.086Z,64.23
2023-02-14T00:45:36.659Z,63.35
2023-02-14T00:46:38.187Z,63.26
2023-02-14T00:47:40.050Z,62.75
2023-02-14T00:48:41.743Z,63.02
2023-02-14T00:49:43.323Z,62.42
2023-02-14T00:50:46.242Z,62.72
2023-02-14T00:51:47.783Z,62.36
2023-02-14T00:52:49.287Z,62.74
2023-02-14T00:53:51.129Z,63.07
2023-02-14T00:54:52.649Z,61.88
2023-02-14T00:55:54.141Z,62.84
2023-02-14T00:56:55.644Z,62.50
2023-02-14T00:57:57.520Z,62.70
2023-02-14T00:58:59.029Z,62.37
2023-02-14T01:00:00.552Z,61.89
2023-02-14T01:01:02.254Z,61.29
2023-02-14T01:02:03.903Z,61.26
2023-02-14T01:03:05.742Z,61.23
2023-02-14T01:04:07.795Z,61.48
2023-02-14T01:05:09.370Z,60.99
2023-02-14T01:06:10.992Z,61.19
2023-02-14T01:07:12.516Z,61.02
2023-02-14T01:08:14.533Z,61.64
2023-02-14T01:09:16.083Z,61.40
2023-02-14T01:10:17.615Z,61.27
2023-02-14T01:11:20.697Z,61.79
2023-02-14T01:12:22.101Z,61.68
2023-02-14T01:13:23.873Z,59.90
2023-02-14T01:14:25.354Z,60.49
2023-02-14T01:15:26.866Z,60.68
2023-02-14T01:16:28.585Z,60.43
2023-02-14T01:17:30.177Z,60.56
2023-02-14T01:18:32.464Z,61.10
2023-02-14T01:19:33.955Z,60.71
2023-02-14T01:20:35.604Z,61.40
2023-02-14T01:21:37.097Z,61.09
2023-02-14T01:22:38.668Z,62.08
2023-02-14T01:23:40.692Z,62.26
2023-02-14T01:24:42.185Z,63.03
2023-02-14T01:25:43.665Z,63.99
2023-02-14T01:26:45.191Z,64.04
2023-02-14T01:27:46.669Z,62.93
2023-02-14T01:28:48.607Z,62.50
2023-02-14T01:29:50.193Z,62.30
2023-02-14T01:30:51.940Z,62.32
2023-02-14T01:31:53.499Z,62.15
2023-02-14T01:32:55.034Z,62.66
2023-02-14T01:33:56.790Z,62.90
2023-02-14T01:34:58.495Z,62.74
2023-02-14T01:36:00.664Z,62.85
2023-02-14T01:37:02.160Z,63.44
2023-02-14T01:38:03.657Z,64.18
2023-02-14T01:39:11.308Z,63.74
2023-02-14T01:40:13.240Z,63.52
2023-02-14T01:41:14.754Z,64.93
2023-02-14T01:42:16.293Z,66.21
2023-02-14T01:43:17.798Z,65.49
2023-02-14T01:44:19.529Z,65.40
2023-02-14T01:45:22.222Z,64.23
2023-02-14T01:46:25.146Z,63.44
2023-02-14T01:47:27.362Z,63.26
2023-02-14T01:48:28.844Z,63.82
2023-02-14T01:49:38.679Z,62.71
2023-02-14T01:50:42.418Z,63.70
2023-02-14T01:52:14.341Z,64.00
2023-02-14T01:53:18.797Z,62.96
2023-02-14T01:54:20.282Z,62.61
2023-02-14T01:55:26.879Z,64.61
2023-02-14T01:56:32.405Z,63.37
2023-02-14T01:57:42.224Z,62.12
2023-02-14T01:58:45.073Z,62.78
2023-02-14T01:59:49.699Z,62.03
2023-02-14T02:00:57.195Z,61.89
2023-02-14T02:01:59.071Z,62.27
2023-02-14T02:03:00.755Z,62.20
2023-02-14T02:04:08.600Z,62.25
2023-02-14T02:05:10.272Z,62.67
2023-02-14T02:06:15.393Z,62.60
2023-02-14T02:07:23.720Z,62.47
2023-02-14T02:08:25.546Z,62.07
2023-02-14T02:09:37.472Z,63.67
2023-02-14T02:10:38.957Z,63.83
2023-02-14T02:11:41.087Z,64.60
2023-02-14T02:12:42.729Z,64.30
2023-02-14T02:13:44.223Z,64.21
2023-02-14T02:14:45.755Z,63.75
2023-02-14T02:16:02.189Z,63.95
2023-02-14T02:17:37.783Z,63.58
2023-02-14T02:18:57.171Z,63.01
2023-02-14T02:20:13.458Z,62.79
2023-02-14T02:21:45.678Z,62.16
2023-02-14T02:23:08.480Z,62.05
2023-02-14T02:25:04.413Z,61.31
2023-02-14T02:26:08.492Z,61.16
2023-02-14T02:27:21.285Z,61.32
2023-02-14T02:28:44.386Z,62.64
2023-02-14T02:30:19.532Z,63.25
2023-02-14T02:31:36.186Z,62.21
2023-02-14T02:33:15.454Z,64.08
2023-02-14T02:34:51.083Z,66.03
2023-02-14T02:36:13.250Z,64.10
2023-02-14T02:37:33.712Z,63.49
2023-02-14T02:38:45.226Z,63.45
2023-02-14T02:40:01.939Z,62.86
2023-02-14T02:41:09.497Z,62.80
2023-02-14T02:42:23.983Z,63.29
2023-02-14T02:43:25.390Z,62.20
2023-02-14T02:44:54.015Z,62.55
2023-02-14T02:46:26.576Z,62.21
2023-02-14T02:47:44.322Z,61.10
2023-02-14T02:48:53.481Z,62.40
2023-02-14T02:50:23.911Z,61.67
2023-02-14T02:52:12.819Z,65.39
2023-02-14T02:53:44.603Z,63.78
2023-02-14T02:54:50.805Z,63.65
2023-02-14T02:56:19.846Z,64.00
2023-02-14T02:57:27.442Z,63.37
2023-02-14T02:58:53.417Z,63.43
2023-02-14T02:59:55.281Z,62.85
2023-02-14T03:00:56.921Z,63.89
2023-02-14T03:02:23.412Z,63.94
2023-02-14T03:03:43.584Z,63.51
2023-02-14T03:04:53.562Z,63.01
2023-02-14T03:05:55.340Z,63.25
2023-02-14T03:06:57.084Z,62.73
2023-02-14T03:07:58.572Z,62.53
2023-02-14T03:09:27.819Z,62.48
2023-02-14T03:10:34.904Z,62.53
2023-02-14T03:11:37.156Z,62.46
2023-02-14T03:12:54.267Z,62.98
2023-02-14T03:14:07.662Z,62.83
2023-02-14T03:15:15.015Z,63.22
2023-02-14T03:16:35.680Z,64.56
2023-02-14T03:17:46.499Z,63.48
2023-02-14T03:19:28.543Z,63.37
2023-02-14T03:20:29.905Z,64.77
2023-02-14T03:21:34.221Z,64.57
2023-02-14T03:23:00.825Z,64.73
2023-02-14T03:24:25.238Z,64.27
2023-02-14T03:25:40.193Z,64.30
2023-02-14T03:27:06.268Z,63.75
2023-02-14T03:28:12.896Z,62.67
2023-02-14T03:29:23.426Z,62.96
2023-02-14T03:30:31.462Z,62.81
2023-02-14T03:31:34.492Z,62.50
2023-02-14T03:32:45.724Z,62.18
2023-02-14T03:33:50.976Z,62.40
2023-02-14T03:35:07.270Z,62.66
2023-02-14T03:36:12.555Z,61.62
2023-02-14T03:37:33.546Z,62.05
2023-02-14T03:38:40.237Z,61.63
2023-02-14T03:40:01.827Z,62.10
2023-02-14T03:41:05.349Z,61.95
2023-02-14T03:42:10.473Z,62.21
2023-02-14T03:43:17.134Z,62.29
2023-02-14T03:44:20.528Z,61.67
2023-02-14T03:45:36.168Z,62.13
2023-02-14T03:47:01.086Z,61.78
2023-02-14T03:48:05.712Z,61.49
2023-02-14T03:49:14.390Z,61.17
2023-02-14T03:50:17.816Z,60.84
2023-02-14T03:51:19.820Z,61.20
2023-02-14T03:52:21.457Z,61.63
2023-02-14T03:53:25.158Z,61.76
2023-02-14T03:54:26.644Z,60.93
2023-02-14T03:55:34.899Z,61.52
2023-02-14T03:56:45.736Z,61.10
2023-02-14T03:57:53.238Z,60.83
2023-02-14T03:58:57.164Z,60.94
2023-02-14T03:59:58.645Z,60.94
2023-02-14T04:01:29.977Z,61.18
2023-02-14T04:02:35.106Z,60.51
2023-02-14T04:03:37.325Z,60.60
2023-02-14T04:04:41.117Z,61.22
2023-02-14T04:05:46.661Z,60.86
2023-02-14T04:06:48.250Z,61.34
2023-02-14T04:07:54.108Z,61.30
2023-02-14T04:08:55.682Z,60.99
2023-02-14T04:09:57.164Z,61.18
2023-02-14T04:11:01.066Z,60.79
2023-02-14T04:12:02.813Z,60.56
2023-02-14T04:13:04.419Z,61.05
2023-02-14T04:14:06.000Z,61.68
2023-02-14T04:15:07.898Z,62.21
2023-02-14T04:16:09.573Z,62.43
2023-02-14T04:17:34.221Z,62.08
2023-02-14T04:19:11.300Z,61.42
2023-02-14T04:20:12.981Z,61.45
2023-02-14T04:21:14.525Z,61.97
2023-02-14T04:22:16.338Z,62.45
2023-02-14T04:23:17.899Z,62.54
2023-02-14T04:24:19.744Z,62.52
2023-02-14T04:25:21.725Z,62.40
2023-02-14T04:26:23.219Z,62.05
2023-02-14T04:27:24.746Z,62.47
2023-02-14T04:28:26.227Z,61.81
2023-02-14T04:29:27.716Z,61.83
2023-02-14T04:30:29.303Z,63.10
2023-02-14T04:31:31.178Z,62.37
2023-02-14T04:32:33.055Z,62.58
2023-02-14T04:33:34.612Z,62.31
2023-02-14T04:34:36.208Z,62.35
2023-02-14T04:35:37.708Z,61.87
2023-02-14T04:36:39.190Z,61.95
2023-02-14T04:37:41.159Z,61.97
2023-02-14T04:38:42.660Z,62.42
2023-02-14T04:39:44.161Z,62.47
2023-02-14T04:40:45.767Z,62.29
2023-02-14T04:41:47.252Z,63.95
2023-02-14T04:42:48.787Z,64.44
2023-02-14T04:43:50.301Z,63.97
2023-02-14T04:44:51.859Z,63.37
2023-02-14T04:45:53.390Z,64.31
2023-02-14T04:46:55.011Z,64.13
2023-02-14T04:47:56.597Z,64.03
2023-02-14T04:48:58.084Z,63.66
2023-02-14T04:49:59.639Z,63.40
2023-02-14T04:51:01.491Z,63.49
2023-02-14T04:52:03.505Z,63.18
2023-02-14T04:53:05.121Z,63.28
2023-02-14T04:54:06.801Z,62.73
2023-02-14T04:55:08.971Z,63.26
2023-02-14T04:56:10.595Z,62.97
2023-02-14T04:57:12.071Z,63.44
2023-02-14T04:58:13.564Z,62.66
2023-02-14T04:59:15.126Z,63.09
2023-02-14T05:00:17.001Z,62.76
2023-02-14T05:01:18.535Z,62.55
2023-02-14T05:02:20.195Z,62.94
2023-02-14T05:03:21.732Z,62.13
2023-02-14T05:04:23.327Z,62.34
2023-02-14T05:05:24.828Z,62.24
2023-02-14T05:06:26.338Z,61.62
2023-02-14T05:07:28.167Z,62.32
2023-02-14T05:08:29.677Z,62.37
2023-02-14T05:09:31.397Z,61.98
2023-02-14T05:10:32.898Z,62.14
2023-02-14T05:11:34.409Z,62.07
2023-02-14T05:12:36.315Z,61.22
2023-02-14T05:13:37.814Z,61.95
2023-02-14T05:14:39.328Z,61.22
2023-02-14T05:15:40.911Z,61.33
2023-02-14T05:16:42.505Z,62.58
2023-02-14T05:17:44.409Z,63.97
2023-02-14T05:18:45.954Z,64.73
2023-02-14T05:19:47.443Z,63.84
2023-02-14T05:20:52.341Z,63.86
2023-02-14T05:21:53.837Z,64.21
2023-02-14T05:22:55.426Z,65.87
2023-02-14T05:23:56.924Z,66.47
2023-02-14T05:24:58.419Z,66.68
2023-02-14T05:25:59.980Z,66.00
2023-02-14T05:27:01.524Z,65.85
2023-02-14T05:28:03.007Z,66.85
2023-02-14T05:29:04.569Z,65.15
2023-02-14T05:30:06.701Z,64.33
2023-02-14T05:31:09.190Z,64.11
2023-02-14T05:32:10.822Z,64.12
2023-02-14T05:33:12.559Z,63.89
2023-02-14T05:34:14.102Z,63.82
2023-02-14T05:35:15.590Z,63.56
2023-02-14T05:36:17.090Z,62.82
2023-02-14T05:37:18.925Z,62.88
2023-02-14T05:38:20.436Z,63.33
2023-02-14T05:39:21.958Z,62.78
2023-02-14T05:41:23.871Z,62.10
2023-02-14T05:42:25.820Z,62.45
2023-02-14T05:43:27.421Z,61.94
2023-02-14T05:44:28.917Z,61.98
2023-02-14T05:45:30.446Z,61.17
2023-02-14T05:46:31.939Z,62.05
2023-02-14T05:47:33.422Z,63.49
2023-02-14T05:48:34.941Z,62.41
2023-02-14T05:49:36.617Z,62.73
2023-02-14T05:50:38.128Z,63.28
2023-02-14T05:51:39.628Z,64.27
2023-02-14T05:52:41.143Z,65.16
2023-02-14T05:53:42.651Z,64.44
2023-02-14T05:54:44.127Z,64.28
2023-02-14T05:55:45.641Z,63.60
2023-02-14T05:56:47.223Z,63.58
2023-02-14T05:57:48.716Z,63.80
2023-02-14T05:58:50.204Z,64.01
2023-02-14T05:59:51.758Z,65.78
2023-02-14T06:00:53.279Z,65.83
2023-02-14T06:01:54.834Z,65.77
2023-02-14T06:02:56.360Z,64.86
2023-02-14T06:03:57.833Z,64.34
2023-02-14T06:04:59.331Z,64.86
2023-02-14T06:06:00.861Z,64.06
2023-02-14T06:07:02.363Z,63.53
2023-02-14T06:08:03.901Z,63.74
2023-02-14T06:09:05.447Z,63.79
2023-02-14T06:10:09.860Z,63.23
2023-02-14T06:11:11.487Z,63.15
2023-02-14T06:12:12.999Z,63.07
2023-02-14T06:13:14.629Z,62.69
2023-02-14T06:14:16.183Z,61.99
2023-02-14T06:15:17.726Z,62.21
2023-02-14T06:16:19.258Z,63.21
2023-02-14T06:17:20.827Z,63.28
2023-02-14T06:18:22.404Z,63.64
2023-02-14T06:19:23.913Z,63.10
2023-02-14T06:20:25.632Z,63.10
2023-02-14T06:21:27.544Z,62.35
2023-02-14T06:22:30.635Z,62.72
2023-02-14T06:23:32.300Z,63.32
2023-02-14T06:24:33.824Z,64.31
2023-02-14T06:25:35.360Z,64.66
2023-02-14T06:26:36.906Z,66.01
2023-02-14T06:27:38.386Z,66.57
2023-02-14T06:28:39.915Z,65.89
2023-02-14T06:29:41.519Z,65.33
2023-02-14T06:30:43.164Z,66.23
2023-02-14T06:31:45.168Z,66.46
2023-02-14T06:32:46.733Z,66.32
2023-02-14T06:33:48.290Z,65.66
2023-02-14T06:34:49.814Z,66.22
2023-02-14T06:35:53.745Z,66.29
2023-02-14T06:36:55.302Z,65.81
2023-02-14T06:37:57.329Z,65.47
2023-02-14T06:39:02.180Z,64.90
2023-02-14T06:40:03.826Z,63.76
2023-02-14T06:41:09.005Z,64.07
2023-02-14T06:42:10.606Z,64.63
2023-02-14T06:43:12.125Z,65.25
2023-02-14T06:44:13.731Z,64.73
2023-02-14T06:45:15.303Z,63.96
2023-02-14T06:46:18.060Z,64.97
2023-02-14T06:47:19.607Z,64.64
2023-02-14T06:48:21.106Z,63.69
2023-02-14T06:49:23.906Z,63.71
2023-02-14T06:50:25.434Z,63.62
2023-02-14T06:51:27.038Z,63.74
2023-02-14T06:52:28.704Z,63.39
2023-02-14T06:53:30.305Z,63.26
2023-02-14T06:54:31.903Z,63.54
2023-02-14T06:55:33.415Z,63.33
2023-02-14T06:56:34.929Z,63.30
2023-02-14T06:57:36.436Z,62.85
2023-02-14T06:58:38.000Z,63.14
2023-02-14T06:59:39.615Z,63.13
2023-02-14T07:00:41.121Z,63.01
2023-02-14T07:01:42.828Z,63.56
2023-02-14T07:02:44.477Z,64.17
2023-02-14T07:03:46.072Z,64.60
2023-02-14T07:04:47.607Z,64.92
2023-02-14T07:05:49.095Z,65.68
2023-02-14T07:06:50.598Z,64.55
2023-02-14T07:07:52.096Z,64.90
2023-02-14T07:08:53.628Z,64.75
2023-02-14T07:09:55.149Z,64.21
2023-02-14T07:10:58.013Z,63.66
2023-02-14T07:11:59.993Z,62.86
2023-02-14T07:13:01.572Z,63.16
2023-02-14T07:14:03.313Z,62.69
2023-02-14T07:15:08.463Z,62.92
2023-02-14T07:16:10.714Z,63.30
2023-02-14T07:17:12.233Z,64.09
2023-02-14T07:18:13.846Z,65.70
2023-02-14T07:19:15.335Z,65.03
2023-02-14T07:20:18.281Z,65.56
2023-02-14T07:21:19.777Z,64.93
2023-02-14T07:22:21.286Z,65.38
2023-02-14T07:23:22.790Z,65.19
2023-02-14T07:24:24.283Z,64.81
2023-02-14T07:25:25.916Z,64.53
2023-02-14T07:26:27.400Z,63.93
2023-02-14T07:27:28.880Z,64.40
2023-02-14T07:28:30.517Z,64.35
2023-02-14T07:29:32.045Z,64.54
2023-02-14T07:30:33.964Z,63.41
2023-02-14T07:31:35.578Z,63.58
2023-02-14T07:32:38.015Z,62.88
2023-02-14T07:33:39.524Z,62.95
2023-02-14T07:34:41.191Z,62.78
2023-02-14T07:35:43.030Z,61.93
2023-02-14T07:36:44.631Z,62.54
2023-02-14T07:37:46.131Z,62.29
2023-02-14T07:38:47.665Z,63.06
2023-02-14T07:39:49.145Z,62.44
2023-02-14T07:40:53.741Z,62.85
2023-02-14T07:41:55.268Z,63.38
2023-02-14T07:42:57.393Z,64.06
2023-02-14T07:43:59.049Z,63.90
2023-02-14T07:45:04.778Z,63.65
2023-02-14T07:46:08.617Z,63.15
2023-02-14T07:47:10.648Z,62.96
2023-02-14T07:48:12.178Z,63.95
2023-02-14T07:49:13.817Z,63.78
2023-02-14T07:50:16.065Z,64.23
2023-02-14T07:51:17.582Z,64.04
2023-02-14T07:52:19.087Z,64.27
2023-02-14T07:53:20.595Z,63.55
2023-02-14T07:54:22.107Z,63.91
2023-02-14T07:55:26.825Z,65.58
2023-02-14T07:56:28.326Z,65.54
2023-02-14T07:57:29.817Z,65.89
2023-02-14T07:58:31.320Z,68.55
2023-02-14T07:59:32.867Z,66.47
2023-02-14T08:00:34.465Z,65.45
2023-02-14T08:01:35.979Z,65.03
2023-02-14T08:02:37.492Z,64.93
2023-02-14T08:03:39.040Z,64.41
2023-02-14T08:04:40.625Z,63.98
2023-02-14T08:05:42.750Z,64.08
2023-02-14T08:06:44.314Z,65.18
2023-02-14T08:07:48.868Z,65.27
2023-02-14T08:08:50.431Z,64.59
2023-02-14T08:09:52.063Z,64.55
2023-02-14T08:10:53.601Z,64.26
2023-02-14T08:12:15.106Z,64.24
2023-02-14T08:13:16.715Z,66.86
2023-02-14T08:14:18.241Z,65.41
2023-02-14T08:15:38.170Z,64.60
2023-02-14T08:16:39.862Z,63.79
2023-02-14T08:17:41.468Z,64.18
2023-02-14T08:18:43.166Z,63.67
2023-02-14T08:19:44.688Z,63.05
2023-02-14T08:20:48.666Z,62.94
2023-02-14T08:21:50.150Z,63.08
2023-02-14T08:22:51.738Z,63.24
2023-02-14T08:23:53.235Z,63.54
2023-02-14T08:24:54.736Z,64.33
2023-02-14T08:25:56.372Z,64.25
2023-02-14T08:26:57.921Z,64.21
2023-02-14T08:28:01.980Z,63.80
2023-02-14T08:29:03.484Z,62.85
2023-02-14T08:30:05.367Z,63.58
2023-02-14T08:31:07.066Z,63.74
2023-02-14T08:32:08.740Z,63.48
2023-02-14T08:33:10.387Z,64.23
2023-02-14T08:34:11.884Z,64.27
2023-02-14T08:35:13.428Z,64.56
2023-02-14T08:36:17.740Z,64.10
2023-02-14T08:37:19.479Z,64.49
2023-02-14T08:38:20.961Z,64.46
2023-02-14T08:39:22.460Z,64.27
2023-02-14T08:40:24.286Z,63.66
2023-02-14T08:41:25.769Z,63.07
2023-02-14T08:42:27.246Z,63.68
2023-02-14T08:43:28.749Z,63.16
2023-02-14T08:44:30.361Z,63.23
2023-02-14T08:45:32.458Z,63.08
2023-02-14T08:46:34.022Z,63.06
2023-02-14T08:47:35.926Z,62.89
2023-02-14T08:48:39.338Z,62.84
2023-02-14T08:49:41.003Z,63.22
2023-02-14T08:50:42.763Z,65.00
2023-02-14T08:51:44.286Z,65.38
2023-02-14T08:52:45.796Z,65.59
2023-02-14T08:53:49.810Z,66.15
2023-02-14T08:54:51.376Z,65.83
2023-02-14T08:55:52.901Z,66.16
2023-02-14T08:56:54.397Z,65.94
2023-02-14T08:57:57.206Z,65.64
2023-02-14T08:58:58.699Z,65.07
2023-02-14T09:00:00.189Z,66.98
2023-02-14T09:01:11.695Z,67.08
2023-02-14T09:02:13.757Z,66.46
2023-02-14T09:03:15.328Z,66.27
2023-02-14T09:04:16.893Z,65.84
2023-02-14T09:05:19.596Z,67.04
2023-02-14T09:06:21.128Z,66.12
2023-02-14T09:07:22.676Z,64.92
2023-02-14T09:08:24.192Z,64.56
2023-02-14T09:09:25.728Z,63.80
2023-02-14T09:10:28.710Z,63.83
2023-02-14T09:11:30.204Z,63.51
2023-02-14T09:12:31.800Z,63.47
2023-02-14T09:13:33.351Z,62.75
2023-02-14T09:14:39.441Z,63.24
2023-02-14T09:15:40.986Z,62.89
2023-02-14T09:16:42.594Z,63.26
2023-02-14T09:17:44.193Z,63.18
2023-02-14T09:18:46.264Z,63.15
2023-02-14T09:19:47.798Z,63.19
2023-02-14T09:20:49.393Z,63.35
2023-02-14T09:21:50.905Z,65.69
2023-02-14T09:22:55.616Z,66.37
2023-02-14T09:23:57.090Z,66.07
2023-02-14T09:24:58.606Z,66.93
2023-02-14T09:26:01.784Z,65.47
2023-02-14T09:27:03.436Z,64.51
2023-02-14T09:28:05.148Z,65.11
2023-02-14T09:29:06.702Z,64.41
2023-02-14T09:30:09.694Z,63.47
2023-02-14T09:31:22.003Z,63.03
2023-02-14T09:32:23.653Z,64.35
2023-02-14T09:33:28.963Z,63.92
2023-02-14T09:34:30.526Z,63.38
2023-02-14T09:35:32.050Z,63.44
2023-02-14T09:36:52.387Z,62.80
2023-02-14T09:37:53.990Z,61.95
2023-02-14T09:38:55.556Z,62.54
2023-02-14T09:39:57.439Z,61.57
2023-02-14T09:40:59.340Z,61.26
2023-02-14T09:42:01.006Z,61.92
2023-02-14T09:43:09.932Z,62.08
2023-02-14T09:44:15.789Z,62.37
2023-02-14T09:45:22.796Z,62.31
2023-02-14T09:46:24.318Z,63.08
2023-02-14T09:47:48.777Z,63.98
2023-02-14T09:48:50.327Z,63.63
2023-02-14T09:49:51.899Z,63.26
2023-02-14T09:50:59.099Z,65.32
2023-02-14T09:52:02.111Z,67.12
2023-02-14T09:53:08.329Z,67.39
2023-02-14T09:54:12.779Z,66.94
2023-02-14T09:55:16.037Z,66.82
2023-02-14T09:56:50.406Z,67.53
2023-02-14T09:58:17.633Z,66.52
2023-02-14T09:59:34.444Z,64.62
2023-02-14T10:00:38.638Z,63.73
2023-02-14T10:01:44.825Z,64.57
2023-02-14T10:03:01.316Z,63.61
2023-02-14T10:04:30.033Z,64.02
2023-02-14T10:06:02.159Z,65.97
2023-02-14T10:07:18.724Z,65.01
2023-02-14T10:08:20.088Z,66.57
2023-02-14T10:09:52.478Z,66.83
2023-02-14T10:11:04.381Z,66.30
2023-02-14T10:12:06.025Z,67.39
2023-02-14T10:13:11.044Z,66.73
2023-02-14T10:14:16.389Z,65.19
2023-02-14T10:15:38.126Z,64.75
2023-02-14T10:16:45.614Z,63.56
2023-02-14T10:17:55.730Z,62.77
2023-02-14T10:19:32.497Z,63.86
2023-02-14T10:20:37.901Z,63.32
2023-02-14T10:21:46.444Z,65.38
2023-02-14T10:23:10.034Z,65.05
2023-02-14T10:24:16.149Z,65.38
2023-02-14T10:25:21.492Z,64.44
2023-02-14T10:26:30.450Z,64.22
2023-02-14T10:27:43.837Z,63.68
2023-02-14T10:28:49.332Z,64.04
2023-02-14T10:29:50.901Z,63.69
2023-02-14T10:31:16.936Z,65.37
2023-02-14T10:32:22.236Z,65.30
2023-02-14T10:33:23.759Z,64.88
2023-02-14T10:34:34.448Z,64.50
2023-02-14T10:35:48.223Z,63.96
2023-02-14T10:36:53.401Z,65.94
2023-02-14T10:38:04.373Z,66.20
2023-02-14T10:39:33.684Z,69.06
2023-02-14T10:40:40.743Z,67.85
2023-02-14T10:41:54.623Z,67.56
2023-02-14T10:43:18.176Z,67.68
2023-02-14T10:44:30.392Z,66.60
2023-02-14T10:45:56.440Z,65.09
2023-02-14T10:47:35.854Z,63.99
2023-02-14T10:48:46.928Z,63.41
2023-02-14T10:50:09.888Z,63.73
2023-02-14T10:51:17.194Z,63.10
2023-02-14T10:52:27.303Z,62.85
2023-02-14T10:53:43.275Z,62.92
2023-02-14T10:54:50.673Z,62.14
2023-02-14T10:56:19.971Z,62.80
2023-02-14T10:57:41.853Z,62.72
2023-02-14T10:58:43.328Z,62.66
2023-02-14T10:59:56.058Z,62.64
2023-02-14T11:01:04.671Z,62.27
2023-02-14T11:02:06.183Z,62.25
2023-02-14T11:03:08.526Z,62.04
2023-02-14T11:04:11.599Z,62.18
2023-02-14T11:05:37.009Z,62.52
2023-02-14T11:06:38.515Z,61.99
2023-02-14T11:07:40.003Z,62.83
2023-02-14T11:08:41.670Z,62.66
2023-02-14T11:09:43.215Z,62.88
2023-02-14T11:10:44.726Z,63.10
2023-02-14T11:11:54.083Z,63.52
2023-02-14T11:12:55.816Z,62.56
2023-02-14T11:13:57.658Z,62.64
2023-02-14T11:15:22.530Z,62.50
2023-02-14T11:16:36.957Z,62.20
2023-02-14T11:17:38.579Z,61.74
2023-02-14T11:18:41.239Z,61.49
2023-02-14T11:19:42.778Z,61.72
2023-02-14T11:20:44.304Z,61.13
2023-02-14T11:21:46.758Z,61.12
2023-02-14T11:22:48.439Z,60.46
2023-02-14T11:23:50.548Z,60.53
2023-02-14T11:24:52.786Z,60.57
2023-02-14T11:25:55.610Z,60.82
2023-02-14T11:27:04.419Z,60.76
2023-02-14T11:28:08.215Z,60.29
2023-02-14T11:29:13.714Z,60.22
2023-02-14T11:30:41.442Z,60.10
2023-02-14T11:31:43.134Z,60.44
2023-02-14T11:32:44.808Z,60.70
2023-02-14T11:33:50.971Z,60.20
2023-02-14T11:35:07.133Z,59.80
2023-02-14T11:36:13.286Z,59.37
2023-02-14T11:37:23.303Z,61.31
2023-02-14T11:38:30.526Z,60.56
2023-02-14T11:39:34.664Z,60.49
2023-02-14T11:40:39.200Z,60.15
2023-02-14T11:42:07.071Z,59.97
2023-02-14T11:43:14.399Z,58.91
2023-02-14T11:44:22.966Z,59.38
2023-02-14T11:45:35.357Z,58.84
2023-02-14T11:46:53.046Z,58.70
2023-02-14T11:48:36.572Z,58.17
2023-02-14T11:49:39.077Z,58.27
2023-02-14T11:50:42.068Z,57.96
2023-02-14T11:51:45.270Z,58.91
2023-02-14T11:52:49.955Z,58.23
2023-02-14T11:53:56.706Z,58.14
2023-02-14T11:54:58.301Z,57.80
2023-02-14T11:56:00.765Z,58.43
2023-02-14T11:57:12.232Z,58.09
2023-02-14T11:58:27.108Z,58.26
2023-02-14T11:59:44.976Z,58.53
2023-02-14T12:00:55.672Z,58.94
2023-02-14T12:01:59.034Z,58.68
2023-02-14T12:03:02.962Z,58.85
2023-02-14T12:04:15.760Z,59.32
2023-02-14T12:05:18.097Z,59.46
2023-02-14T12:06:30.261Z,58.76
2023-02-14T12:07:36.596Z,58.90
2023-02-14T12:08:39.458Z,58.49
2023-02-14T12:09:42.696Z,59.83
2023-02-14T12:10:44.217Z,60.07
2023-02-14T12:12:15.505Z,60.06
2023-02-14T12:13:16.894Z,60.29
2023-02-14T12:14:22.566Z,60.16
2023-02-14T12:15:24.123Z,59.58
2023-02-14T12:16:34.070Z,59.73
2023-02-14T12:17:35.986Z,59.42
2023-02-14T12:18:43.226Z,58.86
2023-02-14T12:20:06.329Z,58.67
2023-02-14T12:21:43.360Z,58.31
2023-02-14T12:22:50.094Z,57.84
2023-02-14T12:24:12.846Z,57.71
2023-02-14T12:25:22.829Z,57.45
2023-02-14T12:26:28.107Z,57.68
2023-02-14T12:27:49.408Z,58.06
2023-02-14T12:29:22.197Z,57.69
2023-02-14T12:30:25.228Z,57.75
2023-02-14T12:31:26.729Z,56.85
2023-02-14T12:32:30.031Z,56.69
2023-02-14T12:33:31.510Z,57.03
2023-02-14T12:34:33.886Z,56.95
2023-02-14T12:35:44.472Z,57.42
2023-02-14T12:37:15.264Z,57.24
2023-02-14T12:38:48.923Z,58.23
2023-02-14T12:40:10.635Z,58.37
2023-02-14T12:41:38.138Z,58.27
2023-02-14T12:42:52.502Z,60.15
2023-02-14T12:43:58.229Z,61.57
2023-02-14T12:45:03.089Z,60.62
2023-02-14T12:46:14.308Z,60.01
2023-02-14T12:47:38.534Z,60.10
2023-02-14T12:49:06.528Z,59.53
2023-02-14T12:50:17.592Z,59.53
2023-02-14T12:51:27.045Z,58.91
2023-02-14T12:52:50.198Z,58.72
2023-02-14T12:53:55.982Z,58.04
2023-02-14T12:55:00.152Z,57.93
2023-02-14T12:56:01.566Z,57.88
2023-02-14T12:57:05.976Z,57.76
2023-02-14T12:58:22.057Z,57.83
2023-02-14T12:59:32.356Z,57.63
2023-02-14T13:00:52.279Z,57.33
2023-02-14T13:01:59.856Z,57.25
2023-02-14T13:03:13.397Z,57.08
2023-02-14T13:04:32.928Z,56.51
2023-02-14T13:05:43.692Z,56.87
2023-02-14T13:06:50.707Z,57.07
2023-02-14T13:08:04.096Z,56.85
2023-02-14T13:09:36.435Z,56.37
2023-02-14T13:10:43.648Z,56.28
2023-02-14T13:12:16.735Z,56.48
2023-02-14T13:13:37.115Z,55.54
2023-02-14T13:14:45.526Z,55.18
2023-02-14T13:15:53.340Z,55.67
2023-02-14T13:17:05.630Z,54.68
2023-02-14T13:18:32.000Z,55.04
2023-02-14T13:19:46.870Z,54.62
2023-02-14T13:20:56.436Z,54.73
2023-02-14T13:21:59.852Z,54.94
2023-02-14T13:23:05.374Z,54.82
2023-02-14T13:24:15.015Z,55.08
2023-02-14T13:25:32.044Z,54.46
2023-02-14T13:26:36.370Z,54.23
2023-02-14T13:27:38.033Z,54.93
2023-02-14T13:28:48.788Z,54.90
2023-02-14T13:29:56.328Z,54.57
2023-02-14T13:30:58.727Z,54.97
2023-02-14T13:32:01.258Z,55.07
2023-02-14T13:33:19.741Z,56.40
2023-02-14T13:34:24.147Z,55.70
2023-02-14T13:35:25.714Z,55.68
2023-02-14T13:36:27.497Z,55.93
2023-02-14T13:37:29.455Z,56.27
2023-02-14T13:38:31.771Z,56.12
2023-02-14T13:39:38.410Z,56.05
2023-02-14T13:40:40.782Z,55.75
2023-02-14T13:41:42.308Z,56.01
2023-02-14T13:42:52.593Z,55.50
2023-02-14T13:44:05.413Z,54.99
2023-02-14T13:45:40.240Z,55.22
2023-02-14T13:46:49.621Z,55.23
2023-02-14T13:48:14.593Z,55.25
2023-02-14T13:49:32.723Z,55.15
2023-02-14T13:50:37.050Z,54.74
2023-02-14T13:51:46.010Z,54.92
2023-02-14T13:52:48.701Z,55.25
2023-02-14T13:53:51.581Z,55.01
2023-02-14T13:54:53.094Z,55.23
2023-02-14T13:55:55.931Z,54.79
2023-02-14T13:56:59.137Z,54.48
2023-02-14T13:58:06.078Z,55.01
2023-02-14T13:59:15.157Z,55.19
2023-02-14T14:00:19.118Z,54.60
2023-02-14T14:01:42.863Z,55.13
2023-02-14T14:02:53.790Z,54.44
2023-02-14T14:04:05.076Z,54.73
2023-02-14T14:05:40.545Z,54.00
2023-02-14T14:07:03.406Z,54.24
2023-02-14T14:08:21.408Z,54.45
2023-02-14T14:09:40.996Z,53.84
2023-02-14T14:11:03.760Z,53.27
2023-02-14T14:12:29.355Z,53.69
2023-02-14T14:13:42.710Z,54.34
2023-02-14T14:14:44.568Z,54.45
2023-02-14T14:16:23.442Z,54.24
2023-02-14T14:17:26.211Z,54.42